sensor_id;sensor_type;location;lat;lon;timestamp;P1;durP1;ratioP1;P2;durP2;ratioP2
47737;SDS011;33502;47.182;27.506;2022-07-22T00:01:18;3.33;;;1.20;;
47737;SDS011;33502;47.182;27.506;2022-07-22T00:03:45;3.50;;;1.33;;
47737;SDS011;33502;47.182;27.506;2022-07-22T00:06:11;8.35;;;1.60;;
47737;SDS011;33502;47.182;27.506;2022-07-22T00:08:37;5.90;;;1.20;;
47737;SDS011;33502;47.182;27.506;2022-07-22T00:11:03;4.47;;;1.15;;
47737;SDS011;33502;47.182;27.506;2022-07-22T00:13:30;5.75;;;1.60;;
47737;SDS011;33502;47.182;27.506;2022-07-22T00:15:55;3.30;;;1.33;;
47737;SDS011;33502;47.182;27.506;2022-07-22T00:18:21;3.55;;;1.38;;
47737;SDS011;33502;47.182;27.506;2022-07-22T00:20:47;4.57;;;1.40;;
47737;SDS011;33502;47.182;27.506;2022-07-22T00:23:13;2.38;;;1.25;;
47737;SDS011;33502;47.182;27.506;2022-07-22T00:25:39;2.50;;;1.15;;
47737;SDS011;33502;47.182;27.506;2022-07-22T00:28:04;3.50;;;1.30;;
47737;SDS011;33502;47.182;27.506;2022-07-22T00:30:30;4.90;;;1.65;;
47737;SDS011;33502;47.182;27.506;2022-07-22T00:32:57;4.05;;;1.40;;
47737;SDS011;33502;47.182;27.506;2022-07-22T00:35:23;4.50;;;1.58;;
47737;SDS011;33502;47.182;27.506;2022-07-22T00:37:48;5.07;;;1.52;;
47737;SDS011;33502;47.182;27.506;2022-07-22T00:40:14;4.80;;;1.27;;
47737;SDS011;33502;47.182;27.506;2022-07-22T00:42:40;3.28;;;1.23;;
47737;SDS011;33502;47.182;27.506;2022-07-22T00:45:07;3.42;;;1.45;;
47737;SDS011;33502;47.182;27.506;2022-07-22T00:47:33;5.32;;;1.50;;
47737;SDS011;33502;47.182;27.506;2022-07-22T00:50:00;3.67;;;1.20;;
47737;SDS011;33502;47.182;27.506;2022-07-22T00:52:26;5.45;;;1.67;;
47737;SDS011;33502;47.182;27.506;2022-07-22T00:54:52;4.05;;;1.52;;
47737;SDS011;33502;47.182;27.506;2022-07-22T00:57:18;6.25;;;1.80;;
47737;SDS011;33502;47.182;27.506;2022-07-22T00:59:44;6.35;;;1.73;;
47737;SDS011;33502;47.182;27.506;2022-07-22T01:02:10;6.93;;;1.73;;
47737;SDS011;33502;47.182;27.506;2022-07-22T01:04:36;9.25;;;2.00;;
47737;SDS011;33502;47.182;27.506;2022-07-22T01:07:02;9.05;;;2.05;;
47737;SDS011;33502;47.182;27.506;2022-07-22T01:09:28;5.10;;;1.90;;
47737;SDS011;33502;47.182;27.506;2022-07-22T01:11:54;6.03;;;2.00;;
47737;SDS011;33502;47.182;27.506;2022-07-22T01:14:20;9.07;;;2.13;;
47737;SDS011;33502;47.182;27.506;2022-07-22T01:16:46;9.85;;;1.95;;
47737;SDS011;33502;47.182;27.506;2022-07-22T01:19:12;5.10;;;2.08;;
47737;SDS011;33502;47.182;27.506;2022-07-22T01:21:37;6.20;;;2.30;;
47737;SDS011;33502;47.182;27.506;2022-07-22T01:24:04;7.82;;;1.67;;
47737;SDS011;33502;47.182;27.506;2022-07-22T01:26:30;6.45;;;1.92;;
47737;SDS011;33502;47.182;27.506;2022-07-22T01:28:59;9.93;;;1.80;;
47737;SDS011;33502;47.182;27.506;2022-07-22T01:31:26;3.78;;;1.83;;
47737;SDS011;33502;47.182;27.506;2022-07-22T01:33:53;8.80;;;2.17;;
47737;SDS011;33502;47.182;27.506;2022-07-22T01:36:20;7.70;;;2.15;;
47737;SDS011;33502;47.182;27.506;2022-07-22T01:38:46;3.38;;;1.73;;
47737;SDS011;33502;47.182;27.506;2022-07-22T01:41:12;3.42;;;1.67;;
47737;SDS011;33502;47.182;27.506;2022-07-22T01:43:38;4.40;;;1.75;;
47737;SDS011;33502;47.182;27.506;2022-07-22T01:46:05;3.53;;;2.03;;
47737;SDS011;33502;47.182;27.506;2022-07-22T01:48:33;6.30;;;1.85;;
47737;SDS011;33502;47.182;27.506;2022-07-22T01:51:00;4.28;;;2.13;;
47737;SDS011;33502;47.182;27.506;2022-07-22T01:53:25;6.38;;;1.88;;
47737;SDS011;33502;47.182;27.506;2022-07-22T01:55:52;8.68;;;2.10;;
47737;SDS011;33502;47.182;27.506;2022-07-22T01:58:19;3.60;;;2.22;;
47737;SDS011;33502;47.182;27.506;2022-07-22T02:00:46;6.18;;;1.88;;
47737;SDS011;33502;47.182;27.506;2022-07-22T02:03:13;7.55;;;2.60;;
47737;SDS011;33502;47.182;27.506;2022-07-22T02:05:39;4.35;;;1.90;;
47737;SDS011;33502;47.182;27.506;2022-07-22T02:08:16;7.18;;;2.08;;
47737;SDS011;33502;47.182;27.506;2022-07-22T02:11:01;5.40;;;2.72;;
47737;SDS011;33502;47.182;27.506;2022-07-22T02:13:28;13.18;;;2.30;;
47737;SDS011;33502;47.182;27.506;2022-07-22T02:15:53;4.95;;;2.70;;
47737;SDS011;33502;47.182;27.506;2022-07-22T02:18:19;6.10;;;2.75;;
47737;SDS011;33502;47.182;27.506;2022-07-22T02:20:45;8.27;;;2.47;;
47737;SDS011;33502;47.182;27.506;2022-07-22T02:23:12;5.35;;;2.08;;
47737;SDS011;33502;47.182;27.506;2022-07-22T02:25:39;5.97;;;2.35;;
47737;SDS011;33502;47.182;27.506;2022-07-22T02:28:07;6.82;;;2.00;;
47737;SDS011;33502;47.182;27.506;2022-07-22T02:30:34;6.88;;;1.88;;
47737;SDS011;33502;47.182;27.506;2022-07-22T02:33:00;8.50;;;1.95;;
47737;SDS011;33502;47.182;27.506;2022-07-22T02:35:26;7.80;;;2.95;;
47737;SDS011;33502;47.182;27.506;2022-07-22T02:37:52;5.63;;;2.35;;
47737;SDS011;33502;47.182;27.506;2022-07-22T02:40:18;7.78;;;2.97;;
47737;SDS011;33502;47.182;27.506;2022-07-22T02:42:43;4.97;;;2.65;;
47737;SDS011;33502;47.182;27.506;2022-07-22T02:45:10;7.40;;;2.15;;
47737;SDS011;33502;47.182;27.506;2022-07-22T02:47:44;6.07;;;2.40;;
47737;SDS011;33502;47.182;27.506;2022-07-22T02:50:16;3.50;;;2.08;;
47737;SDS011;33502;47.182;27.506;2022-07-22T02:52:42;3.60;;;2.05;;
47737;SDS011;33502;47.182;27.506;2022-07-22T02:55:10;5.35;;;2.45;;
47737;SDS011;33502;47.182;27.506;2022-07-22T02:57:36;6.85;;;2.60;;
47737;SDS011;33502;47.182;27.506;2022-07-22T03:00:02;4.50;;;2.15;;
47737;SDS011;33502;47.182;27.506;2022-07-22T03:02:32;6.43;;;2.45;;
47737;SDS011;33502;47.182;27.506;2022-07-22T03:04:58;4.13;;;2.13;;
47737;SDS011;33502;47.182;27.506;2022-07-22T03:07:24;5.90;;;2.30;;
47737;SDS011;33502;47.182;27.506;2022-07-22T03:09:50;3.25;;;1.90;;
47737;SDS011;33502;47.182;27.506;2022-07-22T03:12:16;6.97;;;2.80;;
47737;SDS011;33502;47.182;27.506;2022-07-22T03:14:43;4.35;;;1.88;;
47737;SDS011;33502;47.182;27.506;2022-07-22T03:17:09;3.25;;;1.85;;
47737;SDS011;33502;47.182;27.506;2022-07-22T03:19:36;5.57;;;2.20;;
47737;SDS011;33502;47.182;27.506;2022-07-22T03:22:02;5.10;;;2.33;;
47737;SDS011;33502;47.182;27.506;2022-07-22T03:24:28;5.47;;;2.67;;
47737;SDS011;33502;47.182;27.506;2022-07-22T03:26:54;6.03;;;2.20;;
47737;SDS011;33502;47.182;27.506;2022-07-22T03:29:19;5.63;;;2.10;;
47737;SDS011;33502;47.182;27.506;2022-07-22T03:31:45;9.68;;;2.40;;
47737;SDS011;33502;47.182;27.506;2022-07-22T03:34:12;5.28;;;2.67;;
47737;SDS011;33502;47.182;27.506;2022-07-22T03:36:43;4.07;;;2.17;;
47737;SDS011;33502;47.182;27.506;2022-07-22T03:39:09;9.98;;;2.28;;
47737;SDS011;33502;47.182;27.506;2022-07-22T03:41:35;3.00;;;2.03;;
47737;SDS011;33502;47.182;27.506;2022-07-22T03:44:01;3.55;;;1.85;;
47737;SDS011;33502;47.182;27.506;2022-07-22T03:46:27;7.05;;;2.03;;
47737;SDS011;33502;47.182;27.506;2022-07-22T03:48:52;4.22;;;2.10;;
47737;SDS011;33502;47.182;27.506;2022-07-22T03:51:19;4.20;;;2.10;;
47737;SDS011;33502;47.182;27.506;2022-07-22T03:53:45;7.25;;;2.33;;
47737;SDS011;33502;47.182;27.506;2022-07-22T03:56:11;3.92;;;2.13;;
47737;SDS011;33502;47.182;27.506;2022-07-22T03:58:37;9.80;;;2.40;;
47737;SDS011;33502;47.182;27.506;2022-07-22T04:01:04;6.70;;;2.22;;
47737;SDS011;33502;47.182;27.506;2022-07-22T04:03:29;9.82;;;2.58;;
47737;SDS011;33502;47.182;27.506;2022-07-22T04:06:05;12.68;;;3.58;;
47737;SDS011;33502;47.182;27.506;2022-07-22T04:08:43;8.73;;;2.78;;
47737;SDS011;33502;47.182;27.506;2022-07-22T04:11:09;10.40;;;2.78;;
47737;SDS011;33502;47.182;27.506;2022-07-22T04:13:37;7.72;;;3.10;;
47737;SDS011;33502;47.182;27.506;2022-07-22T04:16:03;9.75;;;3.33;;
47737;SDS011;33502;47.182;27.506;2022-07-22T04:18:30;8.57;;;3.80;;
47737;SDS011;33502;47.182;27.506;2022-07-22T04:20:56;17.67;;;4.88;;
47737;SDS011;33502;47.182;27.506;2022-07-22T04:23:29;12.20;;;5.47;;
47737;SDS011;33502;47.182;27.506;2022-07-22T04:26:09;8.30;;;5.07;;
47737;SDS011;33502;47.182;27.506;2022-07-22T04:28:34;12.52;;;6.50;;
47737;SDS011;33502;47.182;27.506;2022-07-22T04:31:03;13.00;;;6.03;;
47737;SDS011;33502;47.182;27.506;2022-07-22T04:33:30;19.95;;;8.30;;
47737;SDS011;33502;47.182;27.506;2022-07-22T04:35:56;12.38;;;4.32;;
47737;SDS011;33502;47.182;27.506;2022-07-22T04:38:22;14.95;;;4.97;;
47737;SDS011;33502;47.182;27.506;2022-07-22T04:40:58;8.52;;;4.13;;
47737;SDS011;33502;47.182;27.506;2022-07-22T04:43:25;7.75;;;3.85;;
47737;SDS011;33502;47.182;27.506;2022-07-22T04:45:50;7.32;;;3.83;;
47737;SDS011;33502;47.182;27.506;2022-07-22T04:48:17;9.80;;;3.78;;
47737;SDS011;33502;47.182;27.506;2022-07-22T04:50:43;7.68;;;3.72;;
47737;SDS011;33502;47.182;27.506;2022-07-22T04:53:09;13.20;;;3.78;;
47737;SDS011;33502;47.182;27.506;2022-07-22T04:55:35;13.27;;;3.67;;
47737;SDS011;33502;47.182;27.506;2022-07-22T04:58:01;12.13;;;3.55;;
47737;SDS011;33502;47.182;27.506;2022-07-22T05:00:28;8.90;;;3.15;;
47737;SDS011;33502;47.182;27.506;2022-07-22T05:02:55;14.18;;;3.60;;
47737;SDS011;33502;47.182;27.506;2022-07-22T05:05:21;6.22;;;2.50;;
47737;SDS011;33502;47.182;27.506;2022-07-22T05:07:47;11.98;;;3.55;;
47737;SDS011;33502;47.182;27.506;2022-07-22T05:10:13;7.65;;;3.03;;
47737;SDS011;33502;47.182;27.506;2022-07-22T05:12:39;7.95;;;2.80;;
47737;SDS011;33502;47.182;27.506;2022-07-22T05:15:06;8.63;;;3.42;;
47737;SDS011;33502;47.182;27.506;2022-07-22T05:17:33;8.98;;;3.35;;
47737;SDS011;33502;47.182;27.506;2022-07-22T05:20:16;6.80;;;2.85;;
47737;SDS011;33502;47.182;27.506;2022-07-22T05:22:43;8.23;;;3.13;;
47737;SDS011;33502;47.182;27.506;2022-07-22T05:25:14;7.13;;;3.58;;
47737;SDS011;33502;47.182;27.506;2022-07-22T05:27:49;11.57;;;3.53;;
47737;SDS011;33502;47.182;27.506;2022-07-22T05:30:25;12.27;;;3.97;;
47737;SDS011;33502;47.182;27.506;2022-07-22T05:32:52;9.40;;;3.05;;
47737;SDS011;33502;47.182;27.506;2022-07-22T05:35:32;6.60;;;3.05;;
47737;SDS011;33502;47.182;27.506;2022-07-22T05:37:58;9.70;;;3.13;;
47737;SDS011;33502;47.182;27.506;2022-07-22T05:40:24;7.22;;;4.15;;
47737;SDS011;33502;47.182;27.506;2022-07-22T05:42:50;7.43;;;3.67;;
47737;SDS011;33502;47.182;27.506;2022-07-22T05:45:15;6.07;;;3.10;;
47737;SDS011;33502;47.182;27.506;2022-07-22T05:47:41;6.13;;;2.95;;
47737;SDS011;33502;47.182;27.506;2022-07-22T05:50:07;13.07;;;3.30;;
47737;SDS011;33502;47.182;27.506;2022-07-22T05:52:38;6.90;;;3.67;;
47737;SDS011;33502;47.182;27.506;2022-07-22T05:55:07;8.48;;;3.63;;
47737;SDS011;33502;47.182;27.506;2022-07-22T05:57:33;8.45;;;3.10;;
47737;SDS011;33502;47.182;27.506;2022-07-22T06:00:01;5.50;;;3.45;;
47737;SDS011;33502;47.182;27.506;2022-07-22T06:02:39;12.40;;;3.17;;
47737;SDS011;33502;47.182;27.506;2022-07-22T06:05:08;7.15;;;2.92;;
47737;SDS011;33502;47.182;27.506;2022-07-22T06:07:34;4.93;;;3.05;;
47737;SDS011;33502;47.182;27.506;2022-07-22T06:10:02;7.40;;;3.28;;
47737;SDS011;33502;47.182;27.506;2022-07-22T06:12:31;8.00;;;3.13;;
47737;SDS011;33502;47.182;27.506;2022-07-22T06:14:57;7.13;;;3.25;;
47737;SDS011;33502;47.182;27.506;2022-07-22T06:17:23;6.57;;;3.33;;
47737;SDS011;33502;47.182;27.506;2022-07-22T06:19:50;7.53;;;3.22;;
47737;SDS011;33502;47.182;27.506;2022-07-22T06:22:16;7.68;;;3.15;;
47737;SDS011;33502;47.182;27.506;2022-07-22T06:24:45;6.82;;;3.30;;
47737;SDS011;33502;47.182;27.506;2022-07-22T06:27:11;5.88;;;3.17;;
47737;SDS011;33502;47.182;27.506;2022-07-22T06:29:40;12.95;;;3.70;;
47737;SDS011;33502;47.182;27.506;2022-07-22T06:32:07;8.10;;;2.72;;
47737;SDS011;33502;47.182;27.506;2022-07-22T06:34:33;4.70;;;3.22;;
47737;SDS011;33502;47.182;27.506;2022-07-22T06:37:03;6.18;;;2.70;;
47737;SDS011;33502;47.182;27.506;2022-07-22T06:39:30;6.38;;;2.90;;
47737;SDS011;33502;47.182;27.506;2022-07-22T06:42:14;6.80;;;3.25;;
47737;SDS011;33502;47.182;27.506;2022-07-22T06:44:51;7.35;;;3.30;;
47737;SDS011;33502;47.182;27.506;2022-07-22T06:47:36;5.63;;;2.80;;
47737;SDS011;33502;47.182;27.506;2022-07-22T06:50:03;4.90;;;2.65;;
47737;SDS011;33502;47.182;27.506;2022-07-22T06:52:30;8.30;;;2.85;;
47737;SDS011;33502;47.182;27.506;2022-07-22T06:54:59;4.80;;;2.90;;
47737;SDS011;33502;47.182;27.506;2022-07-22T06:57:29;6.68;;;3.30;;
47737;SDS011;33502;47.182;27.506;2022-07-22T06:59:55;4.82;;;3.05;;
47737;SDS011;33502;47.182;27.506;2022-07-22T07:02:23;3.20;;;2.50;;
47737;SDS011;33502;47.182;27.506;2022-07-22T07:04:49;4.97;;;3.28;;
47737;SDS011;33502;47.182;27.506;2022-07-22T07:07:15;6.28;;;2.78;;
47737;SDS011;33502;47.182;27.506;2022-07-22T07:09:53;7.15;;;3.20;;
47737;SDS011;33502;47.182;27.506;2022-07-22T07:12:25;4.72;;;2.85;;
47737;SDS011;33502;47.182;27.506;2022-07-22T07:15:18;5.75;;;4.00;;
47737;SDS011;33502;47.182;27.506;2022-07-22T07:17:44;5.03;;;2.85;;
47737;SDS011;33502;47.182;27.506;2022-07-22T07:20:13;5.90;;;2.90;;
47737;SDS011;33502;47.182;27.506;2022-07-22T07:22:39;11.00;;;4.43;;
47737;SDS011;33502;47.182;27.506;2022-07-22T07:25:06;9.68;;;4.00;;
47737;SDS011;33502;47.182;27.506;2022-07-22T07:27:34;6.90;;;3.42;;
47737;SDS011;33502;47.182;27.506;2022-07-22T07:30:05;4.55;;;2.80;;
47737;SDS011;33502;47.182;27.506;2022-07-22T07:32:32;4.57;;;3.20;;
47737;SDS011;33502;47.182;27.506;2022-07-22T07:34:58;9.10;;;6.00;;
47737;SDS011;33502;47.182;27.506;2022-07-22T07:37:23;6.55;;;2.90;;
47737;SDS011;33502;47.182;27.506;2022-07-22T07:39:49;11.18;;;3.30;;
47737;SDS011;33502;47.182;27.506;2022-07-22T07:42:15;5.53;;;2.97;;
47737;SDS011;33502;47.182;27.506;2022-07-22T07:44:41;3.22;;;2.70;;
47737;SDS011;33502;47.182;27.506;2022-07-22T07:47:07;4.20;;;2.80;;
47737;SDS011;33502;47.182;27.506;2022-07-22T07:49:33;4.60;;;2.65;;
47737;SDS011;33502;47.182;27.506;2022-07-22T07:51:59;4.90;;;3.05;;
47737;SDS011;33502;47.182;27.506;2022-07-22T07:54:25;6.95;;;3.03;;
47737;SDS011;33502;47.182;27.506;2022-07-22T07:56:52;4.32;;;3.10;;
47737;SDS011;33502;47.182;27.506;2022-07-22T07:59:18;5.22;;;2.90;;
47737;SDS011;33502;47.182;27.506;2022-07-22T08:01:45;5.25;;;3.17;;
47737;SDS011;33502;47.182;27.506;2022-07-22T08:04:11;9.07;;;3.50;;
47737;SDS011;33502;47.182;27.506;2022-07-22T08:06:37;3.08;;;2.70;;
47737;SDS011;33502;47.182;27.506;2022-07-22T08:09:04;5.32;;;3.17;;
47737;SDS011;33502;47.182;27.506;2022-07-22T08:11:33;4.95;;;2.92;;
47737;SDS011;33502;47.182;27.506;2022-07-22T08:14:27;5.22;;;3.00;;
47737;SDS011;33502;47.182;27.506;2022-07-22T08:17:05;4.63;;;2.95;;
47737;SDS011;33502;47.182;27.506;2022-07-22T08:19:31;5.50;;;2.67;;
47737;SDS011;33502;47.182;27.506;2022-07-22T08:21:57;6.13;;;3.10;;
47737;SDS011;33502;47.182;27.506;2022-07-22T08:24:27;5.00;;;2.35;;
47737;SDS011;33502;47.182;27.506;2022-07-22T08:26:53;4.65;;;2.58;;
47737;SDS011;33502;47.182;27.506;2022-07-22T08:29:19;7.15;;;2.72;;
47737;SDS011;33502;47.182;27.506;2022-07-22T08:31:45;8.15;;;2.65;;
47737;SDS011;33502;47.182;27.506;2022-07-22T08:34:14;6.50;;;2.90;;
47737;SDS011;33502;47.182;27.506;2022-07-22T08:36:39;5.13;;;2.92;;
47737;SDS011;33502;47.182;27.506;2022-07-22T08:39:05;6.70;;;2.78;;
47737;SDS011;33502;47.182;27.506;2022-07-22T08:41:34;7.50;;;2.97;;
47737;SDS011;33502;47.182;27.506;2022-07-22T08:44:06;5.13;;;2.97;;
47737;SDS011;33502;47.182;27.506;2022-07-22T08:46:34;3.63;;;2.70;;
47737;SDS011;33502;47.182;27.506;2022-07-22T08:49:23;6.22;;;2.75;;
47737;SDS011;33502;47.182;27.506;2022-07-22T08:52:02;8.00;;;3.03;;
47737;SDS011;33502;47.182;27.506;2022-07-22T08:54:35;5.88;;;3.63;;
47737;SDS011;33502;47.182;27.506;2022-07-22T08:57:01;6.82;;;3.15;;
47737;SDS011;33502;47.182;27.506;2022-07-22T08:59:27;6.15;;;3.78;;
47737;SDS011;33502;47.182;27.506;2022-07-22T09:02:06;4.47;;;3.20;;
47737;SDS011;33502;47.182;27.506;2022-07-22T09:04:55;7.55;;;2.78;;
47737;SDS011;33502;47.182;27.506;2022-07-22T09:07:26;8.13;;;3.28;;
47737;SDS011;33502;47.182;27.506;2022-07-22T09:10:22;6.47;;;3.00;;
47737;SDS011;33502;47.182;27.506;2022-07-22T09:13:07;3.47;;;2.70;;
47737;SDS011;33502;47.182;27.506;2022-07-22T09:15:53;7.32;;;2.97;;
47737;SDS011;33502;47.182;27.506;2022-07-22T09:18:49;4.60;;;3.10;;
47737;SDS011;33502;47.182;27.506;2022-07-22T09:21:34;3.95;;;3.03;;
47737;SDS011;33502;47.182;27.506;2022-07-22T09:24:08;6.07;;;2.88;;
47737;SDS011;33502;47.182;27.506;2022-07-22T09:26:53;6.10;;;3.03;;
47737;SDS011;33502;47.182;27.506;2022-07-22T09:29:29;9.10;;;3.40;;
47737;SDS011;33502;47.182;27.506;2022-07-22T09:32:11;6.72;;;3.40;;
47737;SDS011;33502;47.182;27.506;2022-07-22T09:35:00;9.35;;;3.25;;
47737;SDS011;33502;47.182;27.506;2022-07-22T09:37:30;5.53;;;3.17;;
47737;SDS011;33502;47.182;27.506;2022-07-22T09:40:11;4.70;;;3.03;;
47737;SDS011;33502;47.182;27.506;2022-07-22T09:42:51;5.78;;;3.47;;
47737;SDS011;33502;47.182;27.506;2022-07-22T09:45:21;5.38;;;3.10;;
47737;SDS011;33502;47.182;27.506;2022-07-22T09:47:51;7.43;;;3.40;;
47737;SDS011;33502;47.182;27.506;2022-07-22T09:50:34;4.60;;;3.55;;
47737;SDS011;33502;47.182;27.506;2022-07-22T09:53:32;8.18;;;3.88;;
47737;SDS011;33502;47.182;27.506;2022-07-22T09:56:09;6.85;;;3.28;;
47737;SDS011;33502;47.182;27.506;2022-07-22T09:58:35;4.28;;;3.08;;
47737;SDS011;33502;47.182;27.506;2022-07-22T10:01:07;5.97;;;3.65;;
47737;SDS011;33502;47.182;27.506;2022-07-22T10:03:34;4.75;;;3.63;;
47737;SDS011;33502;47.182;27.506;2022-07-22T10:06:03;6.45;;;3.55;;
47737;SDS011;33502;47.182;27.506;2022-07-22T10:08:31;5.13;;;3.25;;
47737;SDS011;33502;47.182;27.506;2022-07-22T10:10:59;10.45;;;3.45;;
47737;SDS011;33502;47.182;27.506;2022-07-22T10:13:30;6.63;;;2.70;;
47737;SDS011;33502;47.182;27.506;2022-07-22T10:15:57;4.78;;;3.20;;
47737;SDS011;33502;47.182;27.506;2022-07-22T10:18:23;7.60;;;3.63;;
47737;SDS011;33502;47.182;27.506;2022-07-22T10:21:07;4.00;;;3.42;;
47737;SDS011;33502;47.182;27.506;2022-07-22T10:23:34;5.90;;;3.28;;
47737;SDS011;33502;47.182;27.506;2022-07-22T10:26:02;7.10;;;3.60;;
47737;SDS011;33502;47.182;27.506;2022-07-22T10:28:36;8.48;;;3.60;;
47737;SDS011;33502;47.182;27.506;2022-07-22T10:33:41;5.32;;;4.03;;
47737;SDS011;33502;47.182;27.506;2022-07-22T10:36:08;9.73;;;3.58;;
47737;SDS011;33502;47.182;27.506;2022-07-22T10:38:36;7.07;;;3.78;;
47737;SDS011;33502;47.182;27.506;2022-07-22T10:41:05;5.35;;;3.50;;
47737;SDS011;33502;47.182;27.506;2022-07-22T10:46:07;7.43;;;3.70;;
47737;SDS011;33502;47.182;27.506;2022-07-22T10:56:18;11.40;;;4.05;;
47737;SDS011;33502;47.182;27.506;2022-07-22T10:58:47;5.43;;;3.47;;
47737;SDS011;33502;47.182;27.506;2022-07-22T11:01:17;8.65;;;3.70;;
47737;SDS011;33502;47.182;27.506;2022-07-22T11:03:45;5.70;;;4.28;;
47737;SDS011;33502;47.182;27.506;2022-07-22T11:08:41;5.22;;;3.80;;
47737;SDS011;33502;47.182;27.506;2022-07-22T11:11:09;5.68;;;3.28;;
47737;SDS011;33502;47.182;27.506;2022-07-22T11:13:36;3.60;;;3.30;;
47737;SDS011;33502;47.182;27.506;2022-07-22T11:18:46;5.00;;;3.83;;
47737;SDS011;33502;47.182;27.506;2022-07-22T11:21:32;5.68;;;3.78;;
47737;SDS011;33502;47.182;27.506;2022-07-22T11:24:00;8.13;;;3.92;;
47737;SDS011;33502;47.182;27.506;2022-07-22T11:26:40;11.10;;;4.43;;
47737;SDS011;33502;47.182;27.506;2022-07-22T11:29:08;6.38;;;3.85;;
47737;SDS011;33502;47.182;27.506;2022-07-22T11:31:35;6.22;;;3.72;;
47737;SDS011;33502;47.182;27.506;2022-07-22T11:34:06;13.20;;;4.22;;
47737;SDS011;33502;47.182;27.506;2022-07-22T11:36:34;8.73;;;4.03;;
47737;SDS011;33502;47.182;27.506;2022-07-22T11:39:01;6.45;;;4.10;;
47737;SDS011;33502;47.182;27.506;2022-07-22T11:41:28;5.97;;;3.75;;
47737;SDS011;33502;47.182;27.506;2022-07-22T11:43:56;7.18;;;3.88;;
47737;SDS011;33502;47.182;27.506;2022-07-22T11:46:22;9.30;;;4.13;;
47737;SDS011;33502;47.182;27.506;2022-07-22T11:48:51;7.20;;;4.40;;
47737;SDS011;33502;47.182;27.506;2022-07-22T11:51:23;6.57;;;3.78;;
47737;SDS011;33502;47.182;27.506;2022-07-22T11:53:53;5.25;;;3.85;;
47737;SDS011;33502;47.182;27.506;2022-07-22T11:56:19;6.95;;;3.72;;
47737;SDS011;33502;47.182;27.506;2022-07-22T11:58:46;7.45;;;4.22;;
47737;SDS011;33502;47.182;27.506;2022-07-22T12:01:15;4.00;;;3.70;;
47737;SDS011;33502;47.182;27.506;2022-07-22T12:03:50;5.88;;;3.78;;
47737;SDS011;33502;47.182;27.506;2022-07-22T12:06:18;6.65;;;3.97;;
47737;SDS011;33502;47.182;27.506;2022-07-22T12:08:46;5.05;;;4.55;;
47737;SDS011;33502;47.182;27.506;2022-07-22T12:11:18;10.95;;;4.25;;
47737;SDS011;33502;47.182;27.506;2022-07-22T12:13:46;7.50;;;4.22;;
47737;SDS011;33502;47.182;27.506;2022-07-22T12:21:15;4.75;;;4.20;;
47737;SDS011;33502;47.182;27.506;2022-07-22T12:23:48;5.15;;;3.90;;
47737;SDS011;33502;47.182;27.506;2022-07-22T12:26:16;6.70;;;3.78;;
47737;SDS011;33502;47.182;27.506;2022-07-22T12:28:42;6.38;;;3.88;;
47737;SDS011;33502;47.182;27.506;2022-07-22T12:31:07;7.80;;;3.50;;
47737;SDS011;33502;47.182;27.506;2022-07-22T12:33:33;6.03;;;4.35;;
47737;SDS011;33502;47.182;27.506;2022-07-22T12:36:03;5.75;;;3.42;;
47737;SDS011;33502;47.182;27.506;2022-07-22T12:38:31;5.57;;;3.80;;
47737;SDS011;33502;47.182;27.506;2022-07-22T12:41:20;9.00;;;3.92;;
47737;SDS011;33502;47.182;27.506;2022-07-22T12:43:46;5.15;;;4.18;;
47737;SDS011;33502;47.182;27.506;2022-07-22T12:46:14;6.85;;;4.07;;
47737;SDS011;33502;47.182;27.506;2022-07-22T12:48:48;10.35;;;4.80;;
47737;SDS011;33502;47.182;27.506;2022-07-22T12:51:16;11.35;;;3.83;;
47737;SDS011;33502;47.182;27.506;2022-07-22T12:53:42;8.85;;;4.55;;
47737;SDS011;33502;47.182;27.506;2022-07-22T12:56:08;6.68;;;4.22;;
47737;SDS011;33502;47.182;27.506;2022-07-22T12:58:36;6.72;;;4.15;;
47737;SDS011;33502;47.182;27.506;2022-07-22T13:01:05;7.13;;;4.13;;
47737;SDS011;33502;47.182;27.506;2022-07-22T13:03:32;16.55;;;6.55;;
47737;SDS011;33502;47.182;27.506;2022-07-22T13:05:59;5.95;;;4.38;;
47737;SDS011;33502;47.182;27.506;2022-07-22T13:08:27;8.38;;;4.15;;
47737;SDS011;33502;47.182;27.506;2022-07-22T13:10:53;14.18;;;5.60;;
47737;SDS011;33502;47.182;27.506;2022-07-22T13:13:20;7.20;;;3.50;;
47737;SDS011;33502;47.182;27.506;2022-07-22T13:15:47;5.50;;;3.83;;
47737;SDS011;33502;47.182;27.506;2022-07-22T13:18:13;6.95;;;3.80;;
47737;SDS011;33502;47.182;27.506;2022-07-22T13:20:39;4.30;;;3.90;;
47737;SDS011;33502;47.182;27.506;2022-07-22T13:23:05;5.15;;;3.88;;
47737;SDS011;33502;47.182;27.506;2022-07-22T13:25:31;4.22;;;3.63;;
47737;SDS011;33502;47.182;27.506;2022-07-22T13:27:58;5.85;;;3.92;;
47737;SDS011;33502;47.182;27.506;2022-07-22T13:30:24;4.55;;;3.95;;
47737;SDS011;33502;47.182;27.506;2022-07-22T13:32:51;4.78;;;3.70;;
47737;SDS011;33502;47.182;27.506;2022-07-22T13:35:17;4.45;;;3.63;;
47737;SDS011;33502;47.182;27.506;2022-07-22T13:37:46;4.50;;;3.65;;
47737;SDS011;33502;47.182;27.506;2022-07-22T13:40:12;6.03;;;4.00;;
47737;SDS011;33502;47.182;27.506;2022-07-22T13:42:39;4.85;;;3.40;;
47737;SDS011;33502;47.182;27.506;2022-07-22T13:45:05;9.05;;;3.85;;
47737;SDS011;33502;47.182;27.506;2022-07-22T13:47:31;9.98;;;4.20;;
47737;SDS011;33502;47.182;27.506;2022-07-22T13:49:57;5.32;;;4.00;;
47737;SDS011;33502;47.182;27.506;2022-07-22T13:52:23;5.40;;;3.28;;
47737;SDS011;33502;47.182;27.506;2022-07-22T13:54:49;6.47;;;3.90;;
47737;SDS011;33502;47.182;27.506;2022-07-22T13:57:15;6.22;;;3.95;;
47737;SDS011;33502;47.182;27.506;2022-07-22T13:59:41;4.93;;;3.90;;
47737;SDS011;33502;47.182;27.506;2022-07-22T14:02:07;6.28;;;4.53;;
47737;SDS011;33502;47.182;27.506;2022-07-22T14:04:33;4.50;;;3.70;;
47737;SDS011;33502;47.182;27.506;2022-07-22T14:06:59;5.97;;;4.00;;
47737;SDS011;33502;47.182;27.506;2022-07-22T14:09:25;5.53;;;3.47;;
47737;SDS011;33502;47.182;27.506;2022-07-22T14:11:51;4.70;;;3.90;;
47737;SDS011;33502;47.182;27.506;2022-07-22T14:14:16;4.57;;;3.70;;
47737;SDS011;33502;47.182;27.506;2022-07-22T14:16:42;9.07;;;4.25;;
47737;SDS011;33502;47.182;27.506;2022-07-22T14:19:09;8.63;;;3.90;;
47737;SDS011;33502;47.182;27.506;2022-07-22T14:21:37;7.57;;;3.88;;
47737;SDS011;33502;47.182;27.506;2022-07-22T14:24:05;4.40;;;3.70;;
47737;SDS011;33502;47.182;27.506;2022-07-22T14:26:33;9.02;;;4.03;;
47737;SDS011;33502;47.182;27.506;2022-07-22T14:28:59;4.32;;;3.63;;
47737;SDS011;33502;47.182;27.506;2022-07-22T14:31:25;5.55;;;3.65;;
47737;SDS011;33502;47.182;27.506;2022-07-22T14:33:52;10.98;;;4.22;;
47737;SDS011;33502;47.182;27.506;2022-07-22T14:36:18;6.10;;;3.90;;
47737;SDS011;33502;47.182;27.506;2022-07-22T14:38:44;6.80;;;3.88;;
47737;SDS011;33502;47.182;27.506;2022-07-22T14:41:10;6.28;;;4.25;;
47737;SDS011;33502;47.182;27.506;2022-07-22T14:43:36;5.60;;;3.78;;
47737;SDS011;33502;47.182;27.506;2022-07-22T14:46:02;5.07;;;4.05;;
47737;SDS011;33502;47.182;27.506;2022-07-22T14:48:36;6.75;;;4.32;;
47737;SDS011;33502;47.182;27.506;2022-07-22T14:51:03;8.20;;;3.83;;
47737;SDS011;33502;47.182;27.506;2022-07-22T14:53:30;4.30;;;3.90;;
47737;SDS011;33502;47.182;27.506;2022-07-22T14:55:56;8.23;;;4.50;;
47737;SDS011;33502;47.182;27.506;2022-07-22T14:58:22;9.80;;;4.30;;
47737;SDS011;33502;47.182;27.506;2022-07-22T15:00:48;5.90;;;4.10;;
47737;SDS011;33502;47.182;27.506;2022-07-22T15:03:13;5.38;;;3.83;;
47737;SDS011;33502;47.182;27.506;2022-07-22T15:05:39;9.02;;;4.32;;